createdAt,value
2018-11-02T00:01:57.262Z,90.30
2018-11-02T00:04:25.630Z,90.50
2018-11-02T00:06:54.666Z,90.50
2018-11-02T00:09:23.583Z,90.50
2018-11-02T00:11:51.986Z,90.60
2018-11-02T00:14:20.349Z,90.60
2018-11-02T00:16:49.028Z,90.70
2018-11-02T00:19:21.602Z,90.70
2018-11-02T00:21:50.188Z,90.80
2018-11-02T00:24:18.565Z,90.80
2018-11-02T00:26:47.169Z,90.90
2018-11-02T00:29:15.605Z,90.90
2018-11-02T00:31:44.189Z,91.00
2018-11-02T00:34:13.477Z,91.00
2018-11-02T00:36:42.203Z,91.10
2018-11-02T00:39:11.225Z,91.10
2018-11-02T00:41:39.785Z,91.20
2018-11-02T00:44:08.828Z,91.30
2018-11-02T00:46:37.667Z,91.40
2018-11-02T00:49:06.480Z,91.40
2018-11-02T00:51:35.465Z,91.40
2018-11-02T00:54:03.877Z,91.60
2018-11-02T00:56:32.385Z,91.40
2018-11-02T00:59:01.157Z,91.40
2018-11-02T01:01:29.575Z,91.40
2018-11-02T01:03:57.949Z,91.40
2018-11-02T01:06:26.918Z,91.40
2018-11-02T01:08:55.297Z,91.40
2018-11-02T01:11:24.117Z,91.40
2018-11-02T01:13:52.497Z,91.40
2018-11-02T01:16:21.190Z,91.40
2018-11-02T01:18:50.489Z,91.40
2018-11-02T01:21:19.418Z,91.40
2018-11-02T01:23:47.977Z,91.30
2018-11-02T01:26:16.926Z,91.30
2018-11-02T01:28:45.887Z,91.30
2018-11-02T01:31:14.293Z,91.20
2018-11-02T01:33:43.291Z,91.30
2018-11-02T01:36:12.228Z,91.30
2018-11-02T01:38:40.989Z,91.30
2018-11-02T01:41:10.090Z,91.20
2018-11-02T01:43:39.005Z,91.10
2018-11-02T01:46:08.208Z,91.10
2018-11-02T01:48:37.195Z,91.10
2018-11-02T01:51:06.250Z,91.10
2018-11-02T01:53:35.337Z,91.10
2018-11-02T01:56:03.775Z,91.10
2018-11-02T01:58:32.846Z,91.10
2018-11-02T02:01:02.007Z,91.10
2018-11-02T02:03:30.990Z,91.00
2018-11-02T02:05:59.434Z,90.90
2018-11-02T02:08:28.369Z,90.90
2018-11-02T02:10:57.552Z,90.90
2018-11-02T02:13:26.962Z,90.60
2018-11-02T02:15:56.020Z,90.70
2018-11-02T02:18:24.943Z,90.80
2018-11-02T02:20:54.044Z,90.80
2018-11-02T02:23:23.035Z,90.80
2018-11-02T02:25:51.972Z,90.80
2018-11-02T02:28:20.372Z,90.70
2018-11-02T02:30:49.487Z,90.70
2018-11-02T02:33:18.598Z,90.70
2018-11-02T02:35:47.833Z,90.60
2018-11-02T02:38:16.937Z,90.60
2018-11-02T02:40:45.830Z,90.60
2018-11-02T02:43:14.727Z,90.60
2018-11-02T02:45:43.832Z,90.60
2018-11-02T02:48:12.779Z,90.50
2018-11-02T02:50:41.700Z,90.60
2018-11-02T02:53:10.653Z,90.60
2018-11-02T02:55:39.750Z,90.60
2018-11-02T02:58:08.841Z,90.60
2018-11-02T03:00:37.798Z,90.60
2018-11-02T03:03:06.740Z,90.60
2018-11-02T03:05:35.641Z,90.60
2018-11-02T03:08:04.585Z,90.60
2018-11-02T03:10:33.752Z,90.60
2018-11-02T03:13:02.843Z,90.60
2018-11-02T03:15:32.073Z,90.50
2018-11-02T03:18:00.989Z,90.50
2018-11-02T03:20:29.910Z,90.40
2018-11-02T03:22:59.009Z,90.50
2018-11-02T03:25:27.917Z,90.40
2018-11-02T03:27:56.860Z,90.40
2018-11-02T03:30:25.749Z,90.50
2018-11-02T03:32:54.681Z,90.60
2018-11-02T03:35:23.602Z,90.60
2018-11-02T03:37:53.532Z,90.60
2018-11-02T03:40:22.451Z,90.60
2018-11-02T03:42:51.361Z,90.60
2018-11-02T03:45:20.502Z,90.60
2018-11-02T03:47:49.641Z,90.60
2018-11-02T03:50:18.555Z,90.50
2018-11-02T03:52:47.473Z,90.50
2018-11-02T03:55:16.560Z,90.50
2018-11-02T03:57:45.613Z,90.50
2018-11-02T04:00:14.536Z,90.60
2018-11-02T04:02:43.804Z,90.60
2018-11-02T04:05:12.897Z,90.60
2018-11-02T04:07:41.836Z,90.70
2018-11-02T04:10:11.634Z,90.60
2018-11-02T04:12:41.542Z,90.50
2018-11-02T04:15:10.767Z,90.60
2018-11-02T04:17:40.006Z,90.60
2018-11-02T04:20:09.271Z,90.70
2018-11-02T04:22:38.397Z,90.70
2018-11-02T04:25:07.689Z,90.70
2018-11-02T04:27:36.756Z,90.70
2018-11-02T04:30:06.578Z,90.80
2018-11-02T04:32:35.680Z,90.90
2018-11-02T04:35:05.121Z,91.20
2018-11-02T04:37:34.128Z,91.00
2018-11-02T04:40:03.153Z,91.00
2018-11-02T04:42:32.256Z,91.10
2018-11-02T04:45:01.181Z,91.10
2018-11-02T04:47:30.261Z,91.00
2018-11-02T04:49:59.596Z,91.10
2018-11-02T04:52:28.547Z,91.10
2018-11-02T04:54:57.721Z,91.10
2018-11-02T04:57:26.796Z,91.10
2018-11-02T04:59:55.893Z,91.20
2018-11-02T05:02:24.840Z,91.10
2018-11-02T05:04:53.857Z,91.20
2018-11-02T05:07:22.784Z,91.20
2018-11-02T05:09:51.943Z,91.30
2018-11-02T05:12:20.964Z,91.30
2018-11-02T05:14:49.941Z,91.30
2018-11-02T05:17:18.874Z,91.30
2018-11-02T05:19:47.803Z,91.40
2018-11-02T05:22:16.771Z,91.40
2018-11-02T05:24:45.137Z,91.50
2018-11-02T05:27:14.258Z,91.90
2018-11-02T05:29:43.489Z,91.60
2018-11-02T05:32:12.420Z,91.70
2018-11-02T05:34:41.461Z,91.70
2018-11-02T05:37:10.511Z,91.70
2018-11-02T05:39:39.529Z,91.80
2018-11-02T05:42:08.533Z,91.80
2018-11-02T05:44:36.913Z,91.80
2018-11-02T05:47:06.142Z,91.90
2018-11-02T05:49:34.691Z,91.90
2018-11-02T05:52:03.950Z,91.90
2018-11-02T05:54:33.182Z,91.90
2018-11-02T05:57:02.084Z,91.80
2018-11-02T05:59:31.175Z,91.90
2018-11-02T06:01:59.741Z,92.00
2018-11-02T06:04:28.061Z,92.00
2018-11-02T06:06:57.081Z,92.00
2018-11-02T06:09:26.470Z,92.10
2018-11-02T06:11:54.914Z,92.20
2018-11-02T06:14:23.827Z,92.10
2018-11-02T06:16:52.278Z,92.10
2018-11-02T06:19:21.354Z,92.10
2018-11-02T06:21:50.453Z,92.10
2018-11-02T06:24:19.544Z,92.10
2018-11-02T06:26:48.036Z,92.10
2018-11-02T06:29:17.206Z,92.10
2018-11-02T06:31:46.232Z,92.00
2018-11-02T06:34:15.378Z,92.00
2018-11-02T06:36:46.078Z,92.00
2018-11-02T06:39:14.630Z,91.90
2018-11-02T06:41:43.629Z,91.90
2018-11-02T06:44:12.632Z,91.90
2018-11-02T06:46:41.864Z,91.90
2018-11-02T06:49:10.770Z,91.90
2018-11-02T06:51:40.010Z,91.90
2018-11-02T06:54:09.061Z,91.80
2018-11-02T06:56:38.189Z,91.80
2018-11-02T06:59:07.189Z,91.80
2018-11-02T07:01:36.667Z,91.70
2018-11-02T07:04:05.598Z,91.60
2018-11-02T07:06:34.752Z,91.60
2018-11-02T07:09:04.613Z,91.60
2018-11-02T07:11:33.728Z,91.50
2018-11-02T07:14:02.922Z,91.40
2018-11-02T07:16:32.103Z,91.40
2018-11-02T07:19:00.996Z,91.40
2018-11-02T07:21:30.190Z,91.30
2018-11-02T07:23:59.261Z,91.40
2018-11-02T07:26:28.397Z,91.30
2018-11-02T07:28:57.502Z,91.30
2018-11-02T07:31:26.570Z,91.20
2018-11-02T07:33:55.677Z,91.40
2018-11-02T07:36:24.618Z,91.30
2018-11-02T07:38:53.570Z,91.20
2018-11-02T07:41:22.472Z,91.20
2018-11-02T07:43:51.383Z,91.10
2018-11-02T07:46:20.341Z,91.00
2018-11-02T07:48:49.289Z,90.80
2018-11-02T07:51:18.574Z,90.60
2018-11-02T07:53:47.511Z,90.60
2018-11-02T07:56:16.553Z,90.40
2018-11-02T07:58:45.703Z,90.20
2018-11-02T08:01:14.796Z,90.10
2018-11-02T08:03:43.920Z,89.90
2018-11-02T08:06:13.058Z,89.40
2018-11-02T08:08:41.980Z,88.70
2018-11-02T08:11:11.171Z,88.40
2018-11-02T08:13:40.700Z,88.30
2018-11-02T08:16:09.826Z,88.10
2018-11-02T08:18:38.814Z,88.00
2018-11-02T08:21:07.830Z,88.10
2018-11-02T08:23:36.731Z,88.20
2018-11-02T08:26:06.288Z,88.20
2018-11-02T08:28:35.222Z,88.00
2018-11-02T08:31:04.982Z,87.70
2018-11-02T08:33:34.051Z,87.50
2018-11-02T08:36:03.087Z,87.50
2018-11-02T08:38:32.003Z,86.90
2018-11-02T08:41:01.090Z,86.70
2018-11-02T08:43:30.018Z,86.50
2018-11-02T08:45:58.996Z,86.20
2018-11-02T08:48:28.031Z,86.10
2018-11-02T08:50:56.971Z,85.80
2018-11-02T08:53:25.877Z,85.80
2018-11-02T08:55:54.918Z,85.80
2018-11-02T08:58:24.037Z,85.80
2018-11-02T09:00:53.043Z,86.60
2018-11-02T09:03:22.078Z,85.90
2018-11-02T09:05:51.015Z,85.60
2018-11-02T09:08:19.947Z,85.60
2018-11-02T09:10:49.028Z,85.30
2018-11-02T09:13:17.978Z,84.80
2018-11-02T09:15:46.969Z,84.00
2018-11-02T09:18:15.984Z,83.30
2018-11-02T09:20:45.079Z,83.00
2018-11-02T09:23:14.742Z,82.60
2018-11-02T09:25:43.689Z,82.00
2018-11-02T09:28:13.113Z,81.60
2018-11-02T09:30:42.206Z,80.90
2018-11-02T09:33:11.460Z,80.90
2018-11-02T09:35:40.377Z,80.50
2018-11-02T09:38:09.773Z,80.20
2018-11-02T09:40:38.974Z,80.00
2018-11-02T09:43:07.988Z,79.90
2018-11-02T09:45:37.244Z,79.70
2018-11-02T09:48:06.538Z,79.90
2018-11-02T09:50:35.687Z,79.90
2018-11-02T09:53:05.493Z,79.90
2018-11-02T09:55:34.620Z,80.00
2018-11-02T09:58:03.784Z,80.10
2018-11-02T10:00:32.729Z,80.20
2018-11-02T10:03:02.260Z,80.30
2018-11-02T10:05:31.826Z,80.50
2018-11-02T10:08:01.113Z,80.30
2018-11-02T10:10:30.436Z,80.10
2018-11-02T10:12:59.606Z,80.10
2018-11-02T10:15:28.775Z,79.90
2018-11-02T10:17:57.724Z,80.00
2018-11-02T10:20:26.637Z,79.90
2018-11-02T10:22:56.146Z,79.80
2018-11-02T10:25:25.347Z,79.80
2018-11-02T10:27:54.549Z,79.30
2018-11-02T10:30:23.752Z,79.10
2018-11-02T10:32:54.706Z,79.30
2018-11-02T10:35:23.987Z,79.00
2018-11-02T10:37:54.494Z,78.90
2018-11-02T10:40:23.661Z,78.50
2018-11-02T10:42:56.009Z,78.30
2018-11-02T10:45:28.456Z,77.90
2018-11-02T10:47:57.617Z,77.20
2018-11-02T10:50:26.838Z,76.50
2018-11-02T10:52:56.453Z,76.00
2018-11-02T10:55:25.728Z,75.50
2018-11-02T10:57:55.685Z,75.40
2018-11-02T11:00:30.162Z,75.00
2018-11-02T11:03:00.008Z,73.70
2018-11-02T11:05:29.231Z,74.20
2018-11-02T11:07:58.425Z,73.70
2018-11-02T11:10:28.146Z,73.30
2018-11-02T11:12:57.641Z,72.60
2018-11-02T11:15:26.547Z,72.30
2018-11-02T11:17:55.671Z,71.80
2018-11-02T11:20:24.855Z,71.90
2018-11-02T11:22:53.823Z,71.70
2018-11-02T11:25:23.298Z,71.50
2018-11-02T11:27:52.649Z,71.60
2018-11-02T11:30:21.673Z,71.80
2018-11-02T11:32:51.495Z,71.50
2018-11-02T11:35:20.612Z,71.50
2018-11-02T11:37:49.986Z,71.50
2018-11-02T11:40:20.236Z,71.70
2018-11-02T11:42:49.419Z,72.10
2018-11-02T11:45:19.363Z,72.40
2018-11-02T11:47:48.518Z,72.70
2018-11-02T11:50:19.863Z,72.90
2018-11-02T11:52:50.802Z,73.30
2018-11-02T11:55:20.521Z,72.90
2018-11-02T11:57:49.475Z,72.40
2018-11-02T12:00:20.055Z,72.50
2018-11-02T12:02:49.820Z,72.20
2018-11-02T12:05:20.679Z,71.90
2018-11-02T12:07:49.959Z,71.60
2018-11-02T12:10:21.727Z,71.20
2018-11-02T12:12:50.817Z,71.80
2018-11-02T12:15:21.279Z,72.00
2018-11-02T12:17:51.435Z,71.80
2018-11-02T12:20:25.534Z,71.40
2018-11-02T12:22:56.650Z,70.90
2018-11-02T12:25:25.648Z,70.80
2018-11-02T12:27:55.233Z,70.50
2018-11-02T12:30:24.245Z,70.40
2018-11-02T12:32:53.725Z,70.90
2018-11-02T12:35:22.830Z,70.40
2018-11-02T12:37:51.978Z,69.90
2018-11-02T12:40:22.436Z,70.00
2018-11-02T12:42:52.953Z,70.30
2018-11-02T12:45:23.830Z,70.00
2018-11-02T12:47:53.109Z,69.70
2018-11-02T12:50:25.110Z,69.90
2018-11-02T12:52:55.852Z,70.00
2018-11-02T12:55:25.346Z,69.90
2018-11-02T12:57:54.482Z,69.30
2018-11-02T13:00:25.080Z,69.20
2018-11-02T13:02:55.060Z,68.70
2018-11-02T13:05:24.140Z,67.70
2018-11-02T13:07:53.671Z,68.40
2018-11-02T13:10:23.557Z,67.30
2018-11-02T13:12:52.689Z,66.00
2018-11-02T13:15:23.321Z,66.50
2018-11-02T13:17:52.655Z,66.50
2018-11-02T13:20:21.687Z,67.30
2018-11-02T13:22:51.328Z,67.10
2018-11-02T13:25:21.646Z,66.80
2018-11-02T13:27:51.529Z,66.30
2018-11-02T13:30:20.903Z,66.10
2018-11-02T13:32:49.997Z,64.70
2018-11-02T13:35:19.870Z,64.40
2018-11-02T13:37:49.781Z,64.10
2018-11-02T13:40:19.605Z,63.50
2018-11-02T13:42:48.809Z,63.60
2018-11-02T13:45:18.499Z,63.70
2018-11-02T13:47:47.711Z,63.00
2018-11-02T13:50:16.839Z,62.60
2018-11-02T13:52:46.223Z,62.80
2018-11-02T13:55:15.671Z,61.60
2018-11-02T13:57:47.905Z,60.90
2018-11-02T14:00:18.184Z,60.60
2018-11-02T14:02:47.608Z,60.80
2018-11-02T14:05:17.493Z,61.50
2018-11-02T14:07:46.989Z,60.80
2018-11-02T14:10:15.979Z,60.50
2018-11-02T14:12:44.907Z,60.10
2018-11-02T14:15:15.460Z,60.30
2018-11-02T14:17:44.934Z,59.90
2018-11-02T14:20:14.551Z,60.10
2018-11-02T14:22:43.758Z,60.60
2018-11-02T14:25:16.197Z,61.10
2018-11-02T14:27:45.863Z,61.90
2018-11-02T14:30:17.213Z,62.50
2018-11-02T14:32:48.217Z,63.00
2018-11-02T14:35:17.398Z,63.20
2018-11-02T14:37:46.374Z,63.50
2018-11-02T14:40:15.626Z,63.50
2018-11-02T14:42:44.600Z,63.90
2018-11-02T14:45:14.950Z,63.80
2018-11-02T14:47:45.588Z,64.00
2018-11-02T14:50:15.086Z,64.50
2018-11-02T14:52:44.071Z,64.90
2018-11-02T14:55:13.252Z,64.90
2018-11-02T14:57:42.564Z,65.20
2018-11-02T15:00:12.751Z,66.30
2018-11-02T15:02:42.713Z,65.60
2018-11-02T15:05:12.897Z,65.70
2018-11-02T15:07:42.962Z,66.00
2018-11-02T15:10:12.385Z,66.30
2018-11-02T15:12:41.353Z,66.50
2018-11-02T15:15:10.972Z,66.70
2018-11-02T15:17:40.643Z,66.90
2018-11-02T15:20:13.541Z,67.20
2018-11-02T15:22:42.815Z,67.50
2018-11-02T15:25:11.830Z,67.70
2018-11-02T15:27:40.807Z,68.00
2018-11-02T15:30:12.567Z,68.20
2018-11-02T15:32:43.313Z,67.80
2018-11-02T15:35:12.825Z,68.60
2018-11-02T15:37:42.552Z,68.90
2018-11-02T15:40:12.861Z,69.00
2018-11-02T15:42:42.223Z,69.10
2018-11-02T15:45:13.379Z,69.10
2018-11-02T15:47:42.758Z,69.20
2018-11-02T15:50:12.298Z,69.30
2018-11-02T15:52:41.908Z,69.40
2018-11-02T15:55:11.913Z,69.50
2018-11-02T15:57:41.087Z,69.60
2018-11-02T16:00:14.730Z,69.60
2018-11-02T16:02:44.634Z,69.50
2018-11-02T16:05:13.875Z,69.60
2018-11-02T16:07:42.994Z,69.70
2018-11-02T16:10:12.477Z,69.70
2018-11-02T16:12:42.365Z,69.90
2018-11-02T16:15:12.051Z,70.00
2018-11-02T16:17:41.195Z,70.20
2018-11-02T16:20:12.420Z,70.20
2018-11-02T16:22:41.682Z,70.40
2018-11-02T16:25:10.820Z,70.50
2018-11-02T16:27:40.400Z,70.50
2018-11-02T16:30:10.413Z,70.50
2018-11-02T16:32:39.490Z,70.50
2018-11-02T16:35:09.830Z,70.70
2018-11-02T16:37:38.807Z,70.70
2018-11-02T16:40:11.170Z,70.90
2018-11-02T16:42:40.304Z,70.90
2018-11-02T16:45:11.473Z,71.10
2018-11-02T16:47:41.166Z,71.30
2018-11-02T16:50:11.697Z,71.40
2018-11-02T16:52:41.149Z,71.50
2018-11-02T16:55:10.913Z,71.70
2018-11-02T16:57:40.859Z,71.70
2018-11-02T17:00:15.374Z,71.70
2018-11-02T17:02:45.645Z,71.90
2018-11-02T17:05:15.092Z,72.10
2018-11-02T17:07:44.226Z,72.30
2018-11-02T17:10:14.369Z,72.50
2018-11-02T17:12:44.697Z,72.80
2018-11-02T17:15:14.339Z,73.10
2018-11-02T17:17:43.587Z,73.30
2018-11-02T17:20:14.275Z,73.30
2018-11-02T17:22:43.474Z,73.50
2018-11-02T17:25:13.156Z,73.60
2018-11-02T17:27:42.423Z,73.80
2018-11-02T17:30:14.309Z,74.10
2018-11-02T17:32:43.259Z,74.30
2018-11-02T17:35:12.805Z,74.60
2018-11-02T17:37:42.013Z,74.80
2018-11-02T17:40:12.625Z,75.00
2018-11-02T17:42:42.250Z,75.20
2018-11-02T17:45:11.223Z,75.40
2018-11-02T17:47:41.178Z,76.40
2018-11-02T17:50:12.171Z,75.90
2018-11-02T17:52:41.959Z,76.30
2018-11-02T17:55:11.153Z,76.60
2018-11-02T17:57:40.474Z,77.00
2018-11-02T18:00:11.282Z,77.30
2018-11-02T18:02:40.268Z,77.60
2018-11-02T18:05:10.229Z,78.00
2018-11-02T18:07:39.643Z,78.30
2018-11-02T18:10:11.318Z,78.40
2018-11-02T18:12:40.531Z,78.60
2018-11-02T18:15:10.687Z,78.80
2018-11-02T18:17:39.824Z,78.80
2018-11-02T18:20:10.995Z,79.00
2018-11-02T18:22:40.111Z,79.10
2018-11-02T18:25:09.586Z,79.20
2018-11-02T18:27:38.854Z,79.30
2018-11-02T18:30:09.102Z,79.50
2018-11-02T18:32:38.414Z,79.60
2018-11-02T18:35:08.617Z,79.80
2018-11-02T18:37:38.333Z,79.80
2018-11-02T18:40:09.164Z,79.90
2018-11-02T18:42:38.680Z,79.90
2018-11-02T18:45:10.700Z,79.80
2018-11-02T18:47:49.485Z,79.80
2018-11-02T18:50:20.932Z,79.90
2018-11-02T18:52:50.543Z,79.90
2018-11-02T18:55:20.017Z,79.90
2018-11-02T18:57:49.004Z,79.60
2018-11-02T19:00:18.615Z,79.50
2018-11-02T19:02:47.724Z,79.40
2018-11-02T19:05:18.030Z,79.40
2018-11-02T19:07:47.238Z,79.30
2018-11-02T19:10:16.417Z,79.10
2018-11-02T19:12:45.695Z,78.80
2018-11-02T19:15:16.168Z,78.60
2018-11-02T19:17:45.360Z,78.70
2018-11-02T19:20:15.266Z,78.80
2018-11-02T19:22:44.830Z,78.80
2018-11-02T19:25:14.993Z,78.80
2018-11-02T19:27:44.796Z,78.80
2018-11-02T19:30:14.821Z,78.80
2018-11-02T19:32:44.672Z,78.80
2018-11-02T19:35:14.569Z,78.90
2018-11-02T19:37:43.987Z,79.10
2018-11-02T19:40:14.390Z,79.00
2018-11-02T19:42:44.125Z,79.00
2018-11-02T19:45:13.695Z,79.10
2018-11-02T19:47:48.019Z,79.10
2018-11-02T19:50:18.092Z,79.10
2018-11-02T19:52:47.219Z,79.00
2018-11-02T19:55:16.513Z,79.00
2018-11-02T19:57:45.598Z,78.80
2018-11-02T20:00:16.304Z,78.80
2018-11-02T20:02:45.659Z,79.00
2018-11-02T20:05:16.799Z,79.00
2018-11-02T20:07:46.061Z,79.00
2018-11-02T20:10:16.834Z,78.80
2018-11-02T20:12:47.073Z,78.80
2018-11-02T20:15:17.092Z,78.80
2018-11-02T20:17:46.391Z,78.70
2018-11-02T20:20:16.294Z,78.70
2018-11-02T20:22:45.449Z,79.50
2018-11-02T20:25:17.238Z,78.50
2018-11-02T20:27:46.666Z,78.50
2018-11-02T20:30:19.438Z,78.50
2018-11-02T20:32:49.036Z,78.40
2018-11-02T20:35:18.286Z,78.60
2018-11-02T20:37:47.572Z,78.60
2018-11-02T20:40:18.206Z,79.50
2018-11-02T20:42:47.420Z,78.90
2018-11-02T20:45:17.325Z,79.30
2018-11-02T20:47:53.956Z,79.50
2018-11-02T20:50:23.144Z,79.70
2018-11-02T20:52:52.860Z,80.00
2018-11-02T20:55:22.265Z,80.30
2018-11-02T20:57:51.354Z,80.60
2018-11-02T21:00:22.939Z,80.90
2018-11-02T21:02:52.530Z,81.20
2018-11-02T21:05:22.562Z,81.50
2018-11-02T21:07:52.272Z,81.60
2018-11-02T21:10:22.085Z,81.90
2018-11-02T21:12:51.478Z,82.00
2018-11-02T21:15:22.802Z,82.20
2018-11-02T21:17:52.424Z,82.30
2018-11-02T21:20:22.971Z,82.30
2018-11-02T21:22:52.244Z,82.30
2018-11-02T21:25:21.455Z,82.40
2018-11-02T21:27:50.607Z,82.30
2018-11-02T21:30:24.161Z,82.10
2018-11-02T21:32:53.758Z,82.20
2018-11-02T21:35:23.681Z,82.10
2018-11-02T21:37:53.187Z,81.90
2018-11-02T21:40:23.805Z,81.80
2018-11-02T21:42:53.089Z,81.70
2018-11-02T21:45:23.212Z,81.70
2018-11-02T21:47:52.740Z,81.70
2018-11-02T21:50:21.741Z,81.50
2018-11-02T21:52:50.881Z,81.50
2018-11-02T21:55:19.869Z,81.60
2018-11-02T21:57:49.000Z,81.70
2018-11-02T22:00:19.540Z,81.80
2018-11-02T22:02:48.835Z,81.80
2018-11-02T22:05:17.982Z,81.80
2018-11-02T22:07:48.365Z,81.80
2018-11-02T22:10:17.765Z,81.90
2018-11-02T22:12:46.917Z,82.00
2018-11-02T22:15:16.262Z,82.00
2018-11-02T22:17:45.375Z,82.20
2018-11-02T22:20:15.445Z,82.20
2018-11-02T22:22:44.395Z,82.40
2018-11-02T22:25:14.465Z,82.50
2018-11-02T22:27:43.765Z,82.50
2018-11-02T22:30:14.953Z,82.50
2018-11-02T22:32:43.906Z,82.60
2018-11-02T22:35:13.471Z,82.70
2018-11-02T22:37:42.755Z,82.80
2018-11-02T22:40:12.724Z,82.90
2018-11-02T22:42:42.533Z,82.70
2018-11-02T22:45:13.290Z,82.70
2018-11-02T22:47:46.629Z,82.70
2018-11-02T22:50:15.581Z,82.60
2018-11-02T22:52:45.056Z,82.70
2018-11-02T22:55:14.144Z,82.70
2018-11-02T22:57:43.084Z,82.70
2018-11-02T23:00:17.207Z,82.70
2018-11-02T23:02:47.256Z,82.80
2018-11-02T23:05:16.522Z,83.00
2018-11-02T23:07:45.911Z,82.90
2018-11-02T23:10:14.860Z,82.90
2018-11-02T23:12:43.989Z,82.90
2018-11-02T23:15:13.702Z,83.50
2018-11-02T23:17:42.854Z,83.00
2018-11-02T23:20:13.516Z,82.90
2018-11-02T23:22:42.740Z,83.00
2018-11-02T23:25:12.334Z,82.80
2018-11-02T23:27:43.060Z,82.90
2018-11-02T23:30:12.668Z,82.80
2018-11-02T23:32:41.744Z,82.80
2018-11-02T23:35:10.873Z,83.00
2018-11-02T23:37:40.077Z,83.20
2018-11-02T23:40:10.269Z,83.40
2018-11-02T23:42:39.527Z,83.40
2018-11-02T23:45:09.941Z,83.60
2018-11-02T23:47:39.309Z,83.70
2018-11-02T23:50:09.568Z,83.60
2018-11-02T23:52:38.819Z,83.70
2018-11-02T23:55:08.435Z,83.80
2018-11-02T23:57:37.628Z,84.00
